Time;durP1;ratioP1;P1;durP2;ratioP2;P2;SDS_P1;SDS_P2;PMS_P1;PMS_P2;Temp;Humidity;BMP_temperature;BMP_pressure;BME280_temperature;BME280_humidity;BME280_pressure;Samples;Min_cycle;Max_cycle;Signal;HPM_P1;HPM_P2
2023/03/24 00:00:20;;;;;;;1.40;0.30;;;;;;;;;;4144360;28;20054;-35
2023/03/24 00:02:22;;;;;;;0.47;0.20;;;;;;;;;;4143763;28;20093;-37
2023/03/24 00:04:26;;;;;;;1.42;0.60;;;;;;;;;;4144907;28;20053;-39
2023/03/24 00:06:27;;;;;;;1.08;0.45;;;;;;;;;;4144442;28;20131;-35
2023/03/24 00:08:30;;;;;;;0.75;0.30;;;;;;;;;;4144162;28;20066;-37
2023/03/24 00:10:52;;;;;;;0.60;0.30;;;;;;;;;;4144645;28;20081;-35
2023/03/24 00:12:53;;;;;;;0.85;0.30;;;;;;;;;;4143941;28;20057;-38
2023/03/24 00:14:54;;;;;;;0.55;0.30;;;;;;;;;;4144419;28;20398;-35
2023/03/24 00:16:57;;;;;;;1.23;0.20;;;;;;;;;;4131076;28;20058;-36
2023/03/24 00:18:58;;;;;;;0.50;0.38;;;;;;;;;;4144614;28;20108;-34
2023/03/24 00:20:59;;;;;;;0.40;0.20;;;;;;;;;;4144464;28;20057;-37
2023/03/24 00:23:01;;;;;;;0.40;0.28;;;;;;;;;;4142944;28;20604;-36
2023/03/24 00:25:02;;;;;;;1.15;0.40;;;;;;;;;;4143752;28;20057;-40
2023/03/24 00:27:04;;;;;;;0.30;0.20;;;;;;;;;;4144359;28;20053;-38
2023/03/24 00:29:10;;;;;;;0.55;0.20;;;;;;;;;;4143013;28;20065;-35
2023/03/24 00:31:15;;;;;;;0.30;0.30;;;;;;;;;;4142614;28;20049;-41
2023/03/24 00:33:17;;;;;;;1.20;0.20;;;;;;;;;;4142610;28;20536;-34
2023/03/24 00:35:18;;;;;;;0.50;0.30;;;;;;;;;;4144251;28;20057;-38
2023/03/24 00:37:20;;;;;;;1.23;0.30;;;;;;;;;;4143881;28;20054;-34
2023/03/24 00:39:21;;;;;;;0.77;0.30;;;;;;;;;;4142994;28;20548;-37
2023/03/24 00:41:25;;;;;;;0.95;0.25;;;;;;;;;;4143935;28;20293;-37
2023/03/24 00:43:30;;;;;;;0.45;0.20;;;;;;;;;;4142928;28;20108;-40
2023/03/24 00:45:33;;;;;;;0.50;0.20;;;;;;;;;;4144290;28;20069;-38
2023/03/24 00:47:37;;;;;;;1.48;0.30;;;;;;;;;;4143570;28;20440;-33
2023/03/24 00:49:41;;;;;;;0.82;0.30;;;;;;;;;;4143517;28;20053;-37
2023/03/24 00:51:44;;;;;;;0.95;0.35;;;;;;;;;;4144123;28;20544;-34
2023/03/24 00:53:46;;;;;;;0.75;0.50;;;;;;;;;;4144149;28;20053;-38
2023/03/24 00:55:48;;;;;;;2.15;0.40;;;;;;;;;;4144137;28;20108;-36
2023/03/24 00:57:50;;;;;;;0.90;0.35;;;;;;;;;;4143783;28;20100;-36
2023/03/24 00:59:53;;;;;;;0.50;0.25;;;;;;;;;;4146970;28;20461;-39
2023/03/24 01:01:56;;;;;;;0.32;0.22;;;;;;;;;;4113092;28;20133;-36
2023/03/24 01:04:19;;;;;;;1.38;0.40;;;;;;;;;;4144832;28;20057;-36
2023/03/24 01:06:21;;;;;;;0.45;0.20;;;;;;;;;;4145822;28;20104;-36
2023/03/24 01:08:24;;;;;;;0.98;0.30;;;;;;;;;;4147023;28;20457;-36
2023/03/24 01:10:29;;;;;;;0.35;0.17;;;;;;;;;;4147466;28;20053;-35
2023/03/24 01:12:35;;;;;;;0.52;0.43;;;;;;;;;;4144723;28;20084;-39
2023/03/24 01:14:37;;;;;;;0.70;0.30;;;;;;;;;;4147336;28;20116;-35
2023/03/24 01:16:39;;;;;;;0.82;0.40;;;;;;;;;;4146727;28;20061;-37
2023/03/24 01:18:41;;;;;;;0.57;0.30;;;;;;;;;;4147064;28;20058;-37
2023/03/24 01:20:44;;;;;;;0.30;0.30;;;;;;;;;;4145277;28;20443;-36
2023/03/24 01:22:46;;;;;;;0.38;0.20;;;;;;;;;;4145589;28;20053;-34
2023/03/24 01:24:48;;;;;;;0.88;0.40;;;;;;;;;;4146758;28;20135;-36
2023/03/24 01:26:50;;;;;;;0.82;0.32;;;;;;;;;;4146751;28;20061;-36
2023/03/24 01:28:51;;;;;;;0.60;0.20;;;;;;;;;;4146658;28;20062;-35
2023/03/24 01:30:53;;;;;;;0.68;0.38;;;;;;;;;;4147040;28;20544;-35
2023/03/24 01:32:55;;;;;;;2.28;0.38;;;;;;;;;;4146378;28;20050;-37
2023/03/24 01:34:56;;;;;;;1.17;0.30;;;;;;;;;;4146889;28;20053;-35
2023/03/24 01:37:34;;;;;;;0.55;0.30;;;;;;;;;;4146648;28;20052;-34
2023/03/24 01:39:36;;;;;;;0.38;0.15;;;;;;;;;;4146734;28;20433;-38
2023/03/24 01:41:38;;;;;;;0.60;0.28;;;;;;;;;;4145622;28;20069;-35
2023/03/24 01:43:40;;;;;;;0.70;0.40;;;;;;;;;;4146788;28;20112;-36
2023/03/24 01:45:49;;;;;;;0.80;0.32;;;;;;;;;;4145358;28;20560;-34
2023/03/24 01:48:19;;;;;;;0.82;0.30;;;;;;;;;;4146407;28;20132;-34
2023/03/24 01:50:21;;;;;;;0.60;0.20;;;;;;;;;;4146121;28;20061;-34
2023/03/24 01:52:28;;;;;;;0.50;0.22;;;;;;;;;;4146543;28;20058;-37
2023/03/24 01:54:55;;;;;;;0.70;0.22;;;;;;;;;;4146691;28;20433;-39
2023/03/24 01:57:19;;;;;;;0.53;0.30;;;;;;;;;;4144617;28;20514;-35
2023/03/24 01:59:26;;;;;;;0.85;0.25;;;;;;;;;;4145251;28;20081;-37
2023/03/24 02:01:48;;;;;;;0.30;0.20;;;;;;;;;;4143989;28;20058;-36
2023/03/24 02:04:08;;;;;;;1.08;0.30;;;;;;;;;;4146250;28;20046;-34
2023/03/24 02:06:11;;;;;;;0.35;0.20;;;;;;;;;;4118968;28;20055;-34
2023/03/24 02:08:36;;;;;;;0.93;0.30;;;;;;;;;;4142063;28;20054;-35
2023/03/24 02:10:38;;;;;;;1.08;0.30;;;;;;;;;;4143902;28;20065;-34
2023/03/24 02:12:41;;;;;;;0.60;0.30;;;;;;;;;;4144379;28;20046;-38
2023/03/24 02:14:43;;;;;;;0.40;0.20;;;;;;;;;;4144849;28;20062;-36
2023/03/24 02:16:47;;;;;;;0.43;0.20;;;;;;;;;;4145582;28;20436;-33
2023/03/24 02:19:16;;;;;;;0.80;0.30;;;;;;;;;;4144884;28;20445;-37
2023/03/24 02:21:56;;;;;;;0.43;0.20;;;;;;;;;;4144600;28;20066;-37
2023/03/24 02:24:16;;;;;;;0.73;0.40;;;;;;;;;;4153100;28;20568;-37
2023/03/24 02:26:51;;;;;;;0.70;0.30;;;;;;;;;;4145512;28;20155;-44
2023/03/24 02:29:26;;;;;;;1.42;0.40;;;;;;;;;;4135912;28;20121;-37
2023/03/24 02:31:58;;;;;;;0.73;0.20;;;;;;;;;;4132532;28;20054;-35
2023/03/24 02:34:30;;;;;;;0.35;0.30;;;;;;;;;;4144497;28;20144;-34
2023/03/24 02:37:17;;;;;;;0.20;0.20;;;;;;;;;;4132190;28;20068;-37
2023/03/24 02:40:03;;;;;;;0.20;0.20;;;;;;;;;;4129790;28;20116;-32
2023/03/24 02:42:17;;;;;;;1.65;0.30;;;;;;;;;;4144582;28;20046;-32
2023/03/24 02:44:30;;;;;;;0.60;0.20;;;;;;;;;;4144407;28;20054;-32
2023/03/24 02:46:47;;;;;;;1.13;0.30;;;;;;;;;;4127612;28;20515;-39
2023/03/24 02:49:10;;;;;;;0.73;0.43;;;;;;;;;;4138713;28;20505;-33
2023/03/24 02:51:29;;;;;;;0.47;0.20;;;;;;;;;;4132775;28;20548;-36
2023/03/24 02:53:39;;;;;;;0.65;0.30;;;;;;;;;;4145690;28;20054;-35
2023/03/24 02:56:00;;;;;;;0.52;0.30;;;;;;;;;;4143929;28;20136;-35
2023/03/24 02:58:09;;;;;;;0.90;0.20;;;;;;;;;;4145470;28;20209;-39
2023/03/24 03:00:27;;;;;;;0.85;0.28;;;;;;;;;;4144307;28;20098;-36
2023/03/24 03:03:01;;;;;;;0.38;0.22;;;;;;;;;;4144542;28;20111;-38
2023/03/24 03:05:36;;;;;;;0.60;0.20;;;;;;;;;;4145187;28;20104;-36
2023/03/24 03:07:37;;;;;;;0.50;0.20;;;;;;;;;;4127074;28;20060;-36
2023/03/24 03:09:41;;;;;;;0.43;0.30;;;;;;;;;;4127739;28;20145;-38
2023/03/24 03:11:47;;;;;;;0.80;0.20;;;;;;;;;;4127608;28;20062;-35
2023/03/24 03:13:55;;;;;;;0.47;0.20;;;;;;;;;;4144778;28;20054;-35
2023/03/24 03:16:00;;;;;;;2.92;0.35;;;;;;;;;;4132216;28;20110;-35
2023/03/24 03:18:21;;;;;;;0.55;0.30;;;;;;;;;;4143428;28;20502;-36
2023/03/24 03:20:49;;;;;;;;;;;;;;;;;;4144295;28;20548;-34
2023/03/24 03:23:04;;;;;;;0.38;0.30;;;;;;;;;;4158865;28;19979;-37
2023/03/24 03:25:06;;;;;;;0.88;0.20;;;;;;;;;;4127350;28;20512;-36
2023/03/24 03:27:15;;;;;;;0.85;0.30;;;;;;;;;;4142380;28;20548;-36
2023/03/24 03:29:20;;;;;;;1.10;0.30;;;;;;;;;;4143970;28;20060;-39
2023/03/24 03:31:43;;;;;;;0.93;0.32;;;;;;;;;;4144458;28;20541;-37
2023/03/24 03:33:51;;;;;;;0.45;0.30;;;;;;;;;;4143411;28;20049;-38
2023/03/24 03:35:58;;;;;;;1.17;0.25;;;;;;;;;;4127606;28;20058;-35
2023/03/24 03:38:08;;;;;;;0.32;0.25;;;;;;;;;;4144561;28;20493;-37
2023/03/24 03:40:15;;;;;;;1.55;0.40;;;;;;;;;;4127584;28;20092;-35
2023/03/24 03:42:21;;;;;;;0.30;0.28;;;;;;;;;;4131878;28;20068;-36
2023/03/24 03:44:23;;;;;;;0.40;0.20;;;;;;;;;;4143518;28;20084;-38
2023/03/24 03:46:25;;;;;;;1.40;0.20;;;;;;;;;;4142992;28;20497;-35
2023/03/24 03:48:28;;;;;;;0.55;0.30;;;;;;;;;;4143209;28;20078;-36
2023/03/24 03:50:29;;;;;;;1.15;0.30;;;;;;;;;;4126682;28;20517;-36
2023/03/24 03:52:36;;;;;;;0.60;0.20;;;;;;;;;;4134949;28;20062;-38
2023/03/24 03:54:38;;;;;;;0.55;0.17;;;;;;;;;;4127416;28;20101;-37
2023/03/24 03:56:41;;;;;;;0.15;0.13;;;;;;;;;;4142761;28;20119;-37
2023/03/24 03:58:59;;;;;;;0.93;0.20;;;;;;;;;;4143393;28;20116;-34
2023/03/24 04:01:02;;;;;;;0.73;0.40;;;;;;;;;;4142953;28;20053;-36
2023/03/24 04:03:24;;;;;;;0.63;0.30;;;;;;;;;;4144634;28;20356;-34
2023/03/24 04:05:56;;;;;;;0.45;0.20;;;;;;;;;;4134620;28;20084;-37
2023/03/24 04:08:20;;;;;;;0.40;0.20;;;;;;;;;;4142947;28;20529;-34
2023/03/24 04:10:46;;;;;;;0.30;0.25;;;;;;;;;;4132788;28;20112;-37
2023/03/24 04:12:56;;;;;;;0.40;0.20;;;;;;;;;;4142116;28;20107;-37
2023/03/24 04:15:23;;;;;;;0.55;0.20;;;;;;;;;;4142991;28;20062;-35
2023/03/24 04:18:02;;;;;;;0.30;0.20;;;;;;;;;;4128985;28;20098;-38
2023/03/24 04:20:31;;;;;;;2.35;0.65;;;;;;;;;;4144527;28;20506;-38
2023/03/24 04:22:42;;;;;;;0.65;0.30;;;;;;;;;;4143207;28;20060;-41
2023/03/24 04:25:06;;;;;;;1.50;0.40;;;;;;;;;;4128022;28;20062;-36
2023/03/24 04:27:20;;;;;;;0.47;0.20;;;;;;;;;;4142805;28;20119;-37
2023/03/24 04:29:28;;;;;;;0.95;0.30;;;;;;;;;;4142969;28;20068;-36
2023/03/24 04:31:48;;;;;;;0.52;0.30;;;;;;;;;;4130782;28;20680;-41
2023/03/24 04:34:24;;;;;;;1.65;0.30;;;;;;;;;;4143688;28;20444;-36
2023/03/24 04:36:49;;;;;;;1.20;0.80;;;;;;;;;;4143106;28;20378;-37
2023/03/24 04:39:03;;;;;;;0.40;0.20;;;;;;;;;;4143214;28;20191;-38
2023/03/24 04:41:10;;;;;;;1.77;0.43;;;;;;;;;;4127347;28;20445;-38
2023/03/24 04:43:15;;;;;;;0.82;0.30;;;;;;;;;;4143253;28;20515;-37
2023/03/24 04:45:35;;;;;;;0.80;0.28;;;;;;;;;;4144771;28;20057;-36
2023/03/24 04:48:03;;;;;;;0.52;0.20;;;;;;;;;;4142824;28;20100;-34
2023/03/24 04:50:33;;;;;;;0.77;0.28;;;;;;;;;;4141999;28;20127;-39
2023/03/24 04:52:39;;;;;;;0.85;0.30;;;;;;;;;;4142290;28;20062;-37
2023/03/24 04:54:41;;;;;;;0.95;0.38;;;;;;;;;;4142800;28;20066;-38
2023/03/24 04:56:50;;;;;;;0.22;0.22;;;;;;;;;;4142578;28;20068;-39
2023/03/24 04:59:08;;;;;;;1.48;0.30;;;;;;;;;;4142430;28;20120;-35
2023/03/24 05:01:48;;;;;;;0.73;0.30;;;;;;;;;;4143688;28;20056;-34
2023/03/24 05:04:09;;;;;;;0.85;0.40;;;;;;;;;;4144112;28;20160;-35
2023/03/24 05:06:11;;;;;;;1.20;0.50;;;;;;;;;;4143083;28;20108;-35
2023/03/24 05:08:15;;;;;;;0.60;0.30;;;;;;;;;;4126943;28;20057;-36
2023/03/24 05:10:18;;;;;;;0.43;0.25;;;;;;;;;;4126565;28;20061;-36
2023/03/24 05:12:24;;;;;;;1.05;0.20;;;;;;;;;;4142373;28;20058;-38
2023/03/24 05:14:49;;;;;;;1.48;0.40;;;;;;;;;;4145778;28;20076;-35
2023/03/24 05:16:50;;;;;;;1.95;0.20;;;;;;;;;;4142186;28;20057;-34
2023/03/24 05:18:54;;;;;;;0.45;0.30;;;;;;;;;;4142318;28;20072;-38
2023/03/24 05:21:14;;;;;;;;;;;;;;;;;;4143280;28;20058;-35
2023/03/24 05:23:15;;;;;;;1.33;0.30;;;;;;;;;;4144121;28;19928;-35
2023/03/24 05:25:19;;;;;;;1.80;0.80;;;;;;;;;;4125894;28;20132;-43
2023/03/24 05:27:20;;;;;;;0.30;0.20;;;;;;;;;;4142339;28;20062;-37
2023/03/24 05:29:22;;;;;;;0.55;0.35;;;;;;;;;;4142952;28;20094;-39
2023/03/24 05:31:23;;;;;;;0.80;0.60;;;;;;;;;;4143705;28;20061;-39
2023/03/24 05:33:32;;;;;;;0.30;0.20;;;;;;;;;;4126985;28;20054;-35
2023/03/24 05:35:34;;;;;;;0.47;0.40;;;;;;;;;;4142613;28;20061;-37
2023/03/24 05:37:54;;;;;;;1.23;0.30;;;;;;;;;;4143358;28;20053;-35
2023/03/24 05:39:55;;;;;;;0.80;0.35;;;;;;;;;;4142371;28;20061;-36
2023/03/24 05:42:32;;;;;;;1.05;0.40;;;;;;;;;;4143452;28;20062;-35
2023/03/24 05:44:36;;;;;;;0.30;0.20;;;;;;;;;;4142411;28;20084;-35
2023/03/24 05:46:45;;;;;;;1.48;0.40;;;;;;;;;;4141640;28;20529;-36
2023/03/24 05:48:47;;;;;;;2.50;0.50;;;;;;;;;;4144948;28;20058;-37
2023/03/24 05:50:53;;;;;;;0.82;0.30;;;;;;;;;;4145727;28;20054;-36
2023/03/24 05:52:56;;;;;;;0.95;0.50;;;;;;;;;;4145367;28;20085;-39
2023/03/24 05:55:14;;;;;;;1.42;0.50;;;;;;;;;;4145376;28;20062;-35
2023/03/24 05:57:35;;;;;;;1.65;0.50;;;;;;;;;;4138880;28;20399;-37
2023/03/24 06:00:08;;;;;;;2.90;0.43;;;;;;;;;;4132119;28;20104;-38
2023/03/24 06:02:15;;;;;;;1.67;0.60;;;;;;;;;;4145843;28;20062;-35
2023/03/24 06:04:29;;;;;;;3.63;0.50;;;;;;;;;;4144942;28;20104;-39
2023/03/24 06:06:48;;;;;;;;;;;;;;;;;;4146651;28;20100;-38
2023/03/24 06:08:54;;;;;;;1.90;0.70;;;;;;;;;;4144838;28;20340;-39
2023/03/24 06:11:01;;;;;;;0.90;0.30;;;;;;;;;;4145093;28;20096;-38
2023/03/24 06:13:03;;;;;;;2.03;0.35;;;;;;;;;;4144243;28;20104;-38
2023/03/24 06:15:07;;;;;;;3.72;0.50;;;;;;;;;;4145191;28;20058;-34
2023/03/24 06:17:13;;;;;;;3.05;0.55;;;;;;;;;;4144468;28;20062;-39
2023/03/24 06:19:37;;;;;;;0.55;0.30;;;;;;;;;;4145950;28;20053;-36
2023/03/24 06:22:01;;;;;;;0.80;0.40;;;;;;;;;;4145829;28;20057;-38
2023/03/24 06:24:06;;;;;;;3.50;0.52;;;;;;;;;;4144635;28;20053;-35
2023/03/24 06:26:10;;;;;;;1.08;0.30;;;;;;;;;;4144041;28;20066;-38
2023/03/24 06:28:18;;;;;;;2.00;0.60;;;;;;;;;;4123734;28;20067;-39
2023/03/24 06:30:21;;;;;;;1.27;0.50;;;;;;;;;;4136359;28;20084;-37
2023/03/24 06:32:24;;;;;;;3.08;0.80;;;;;;;;;;4145694;28;20054;-37
2023/03/24 06:34:28;;;;;;;1.98;0.70;;;;;;;;;;4145757;28;20418;-34
2023/03/24 06:36:46;;;;;;;2.53;0.93;;;;;;;;;;4145430;28;20080;-36
2023/03/24 06:38:48;;;;;;;0.93;0.40;;;;;;;;;;4144613;28;20107;-37
2023/03/24 06:41:09;;;;;;;1.20;0.50;;;;;;;;;;4145420;28;20135;-38
2023/03/24 06:43:28;;;;;;;;;;;;;;;;;;4145203;28;20112;-37
2023/03/24 06:45:30;;;;;;;2.58;0.50;;;;;;;;;;4144174;28;19929;-36
2023/03/24 06:47:31;;;;;;;3.55;0.68;;;;;;;;;;4140822;28;20058;-38
2023/03/24 06:49:33;;;;;;;0.93;0.40;;;;;;;;;;4133355;28;20058;-35
2023/03/24 06:51:35;;;;;;;1.15;0.43;;;;;;;;;;4144119;28;20120;-37
2023/03/24 06:53:37;;;;;;;1.90;0.43;;;;;;;;;;4133996;28;20050;-38
2023/03/24 06:55:39;;;;;;;1.80;0.50;;;;;;;;;;4157612;28;20509;-38
2023/03/24 06:57:42;;;;;;;0.80;0.40;;;;;;;;;;4143626;28;20489;-40
2023/03/24 07:00:05;;;;;;;1.95;0.52;;;;;;;;;;4144507;28;20062;-45
2023/03/24 07:02:33;;;;;;;2.28;0.73;;;;;;;;;;4144309;28;20050;-45
2023/03/24 07:04:35;;;;;;;2.50;0.70;;;;;;;;;;4143414;28;20086;-45
2023/03/24 07:06:53;;;;;;;2.28;0.55;;;;;;;;;;4142909;28;20054;-46
2023/03/24 07:09:12;;;;;;;2.15;0.50;;;;;;;;;;4144573;28;20065;-46
2023/03/24 07:11:14;;;;;;;1.77;0.65;;;;;;;;;;4142850;28;20516;-45
2023/03/24 07:13:22;;;;;;;4.20;0.70;;;;;;;;;;4142622;28;20464;-46
2023/03/24 07:15:26;;;;;;;1.27;0.50;;;;;;;;;;4142649;28;20058;-46
2023/03/24 07:17:29;;;;;;;1.52;0.70;;;;;;;;;;4137611;28;20179;-46
2023/03/24 07:20:09;;;;;;;1.55;0.50;;;;;;;;;;4136072;28;20048;-45
2023/03/24 07:22:16;;;;;;;2.67;0.60;;;;;;;;;;4139883;28;20058;-46
2023/03/24 07:24:37;;;;;;;2.58;0.70;;;;;;;;;;4138223;28;20058;-46
2023/03/24 07:26:59;;;;;;;1.55;0.43;;;;;;;;;;4136244;28;20155;-45
2023/03/24 07:29:00;;;;;;;1.77;0.57;;;;;;;;;;4140784;28;20050;-45
2023/03/24 07:31:36;;;;;;;1.60;0.50;;;;;;;;;;4133241;28;20092;-45
2023/03/24 07:33:38;;;;;;;2.85;0.77;;;;;;;;;;4137318;28;20104;-45
2023/03/24 07:35:40;;;;;;;1.77;0.60;;;;;;;;;;4137241;28;20060;-46
2023/03/24 07:37:42;;;;;;;3.30;1.30;;;;;;;;;;4139048;28;20464;-45
2023/03/24 07:39:44;;;;;;;2.88;0.40;;;;;;;;;;4141212;28;20188;-45
2023/03/24 07:41:47;;;;;;;3.55;0.55;;;;;;;;;;4138534;28;20112;-45
2023/03/24 07:44:22;;;;;;;5.85;0.60;;;;;;;;;;4138382;28;20065;-45
2023/03/24 07:46:42;;;;;;;;;;;;;;;;;;4141629;28;20529;-44
2023/03/24 07:48:43;;;;;;;2.92;0.75;;;;;;;;;;4139871;28;19932;-45
2023/03/24 07:50:45;;;;;;;3.35;0.63;;;;;;;;;;4134628;28;20053;-45
2023/03/24 07:53:08;;;;;;;9.90;1.02;;;;;;;;;;4133946;28;20054;-37
2023/03/24 07:55:10;;;;;;;4.22;0.65;;;;;;;;;;4137617;28;20093;-38
2023/03/24 07:57:36;;;;;;;3.67;0.75;;;;;;;;;;4148965;28;20540;-36
2023/03/24 07:59:37;;;;;;;2.53;0.70;;;;;;;;;;4142669;28;20124;-38
2023/03/24 08:01:48;;;;;;;3.13;0.50;;;;;;;;;;4132058;28;20191;-38
2023/03/24 08:04:12;;;;;;;;;;;;;;;;;;4142402;28;20434;-38
2023/03/24 08:06:29;;;;;;;1.98;0.52;;;;;;;;;;4139294;28;20296;-39
2023/03/24 08:08:34;;;;;;;4.68;0.75;;;;;;;;;;4146819;28;20146;-36
2023/03/24 08:10:35;;;;;;;3.75;0.50;;;;;;;;;;4144080;28;20052;-38
2023/03/24 08:12:37;;;;;;;3.83;0.77;;;;;;;;;;4137289;28;20995;-36
2023/03/24 08:14:39;;;;;;;2.75;0.80;;;;;;;;;;4132315;28;20464;-37
2023/03/24 08:16:40;;;;;;;5.07;0.70;;;;;;;;;;4146688;28;20095;-38
2023/03/24 08:18:42;;;;;;;4.55;0.70;;;;;;;;;;4142131;28;20484;-37
2023/03/24 08:20:44;;;;;;;1.17;0.38;;;;;;;;;;4142464;28;20049;-37
2023/03/24 08:22:52;;;;;;;3.58;0.43;;;;;;;;;;4140595;28;20500;-36
2023/03/24 08:24:54;;;;;;;3.30;0.30;;;;;;;;;;4143552;28;20559;-37
2023/03/24 08:26:58;;;;;;;2.45;0.73;;;;;;;;;;4139691;28;20543;-36
2023/03/24 08:29:00;;;;;;;3.33;0.70;;;;;;;;;;4140779;28;20058;-36
2023/03/24 08:31:03;;;;;;;2.28;0.52;;;;;;;;;;4112787;28;20065;-39
2023/03/24 08:33:23;;;;;;;2.53;0.52;;;;;;;;;;4136391;28;20080;-40
2023/03/24 08:35:31;;;;;;;2.13;0.40;;;;;;;;;;4138576;28;20835;-40
2023/03/24 08:37:32;;;;;;;2.72;0.77;;;;;;;;;;4135831;28;20088;-39
2023/03/24 08:39:57;;;;;;;3.42;0.60;;;;;;;;;;4143183;28;20080;-40
2023/03/24 08:41:58;;;;;;;4.32;0.50;;;;;;;;;;4136482;28;20450;-38
2023/03/24 08:44:03;;;;;;;3.80;0.50;;;;;;;;;;4129860;28;20108;-39
2023/03/24 08:46:06;;;;;;;3.15;0.55;;;;;;;;;;4130424;28;20119;-39
2023/03/24 08:48:09;;;;;;;1.05;0.40;;;;;;;;;;4126403;28;20495;-39
2023/03/24 08:50:10;;;;;;;3.08;0.93;;;;;;;;;;4116983;28;20061;-38
2023/03/24 08:52:11;;;;;;;4.50;0.50;;;;;;;;;;4121001;28;20173;-38
2023/03/24 08:54:32;;;;;;;2.33;0.50;;;;;;;;;;4133594;28;20417;-38
2023/03/24 08:56:33;;;;;;;2.33;0.43;;;;;;;;;;4134551;28;20058;-38
2023/03/24 08:58:35;;;;;;;3.17;0.50;;;;;;;;;;4137155;28;20141;-38
2023/03/24 09:00:36;;;;;;;1.98;0.63;;;;;;;;;;4129888;28;20062;-40
2023/03/24 09:02:38;;;;;;;4.85;0.70;;;;;;;;;;4128536;28;20116;-38
2023/03/24 09:04:41;;;;;;;1.40;0.50;;;;;;;;;;4133096;28;20065;-39
2023/03/24 09:07:01;;;;;;;1.60;0.47;;;;;;;;;;4137060;28;20053;-39
2023/03/24 09:09:02;;;;;;;1.27;0.45;;;;;;;;;;4130956;28;21044;-38
2023/03/24 09:11:05;;;;;;;1.67;0.43;;;;;;;;;;4132742;28;20062;-39
2023/03/24 09:13:06;;;;;;;1.10;0.50;;;;;;;;;;4137674;28;20533;-40
2023/03/24 09:15:09;;;;;;;3.53;0.70;;;;;;;;;;4134404;28;20753;-39
2023/03/24 09:17:10;;;;;;;3.58;0.40;;;;;;;;;;4136981;28;20493;-40
2023/03/24 09:19:30;;;;;;;2.30;0.47;;;;;;;;;;4157950;28;20057;-39
2023/03/24 09:21:32;;;;;;;2.45;0.77;;;;;;;;;;4134965;28;20061;-39
2023/03/24 09:23:34;;;;;;;1.77;0.50;;;;;;;;;;4132592;28;20100;-39
2023/03/24 09:25:36;;;;;;;3.70;0.60;;;;;;;;;;4133418;28;20065;-39
2023/03/24 09:27:38;;;;;;;1.92;0.50;;;;;;;;;;4127454;28;20060;-39
2023/03/24 09:29:39;;;;;;;1.45;0.45;;;;;;;;;;4133151;28;20069;-39
2023/03/24 09:31:41;;;;;;;1.05;0.43;;;;;;;;;;4130269;28;20472;-39
2023/03/24 09:33:42;;;;;;;1.75;0.63;;;;;;;;;;4131882;28;20441;-39
2023/03/24 09:35:44;;;;;;;1.83;0.70;;;;;;;;;;4137072;28;20461;-39
2023/03/24 09:37:45;;;;;;;2.40;0.52;;;;;;;;;;4137465;28;20577;-39
2023/03/24 09:39:46;;;;;;;1.60;0.55;;;;;;;;;;4136690;28;20486;-39
2023/03/24 09:41:49;;;;;;;2.72;0.70;;;;;;;;;;4136692;28;20565;-39
2023/03/24 09:43:57;;;;;;;3.40;0.63;;;;;;;;;;4129256;28;20053;-41
2023/03/24 09:46:01;;;;;;;1.75;0.75;;;;;;;;;;4122440;28;20057;-38
2023/03/24 09:48:06;;;;;;;3.97;0.88;;;;;;;;;;4128289;28;20069;-39
2023/03/24 09:50:22;;;;;;;2.90;0.50;;;;;;;;;;4134366;28;20058;-39
2023/03/24 09:52:39;;;;;;;4.15;0.80;;;;;;;;;;4119021;28;20050;-39
2023/03/24 09:54:49;;;;;;;2.05;0.52;;;;;;;;;;4142662;28;20049;-40
2023/03/24 09:56:52;;;;;;;2.35;0.68;;;;;;;;;;4139414;28;20054;-39
2023/03/24 09:59:24;;;;;;;2.60;0.73;;;;;;;;;;4135057;28;20062;-40
2023/03/24 10:01:26;;;;;;;1.65;0.60;;;;;;;;;;4133478;28;20061;-40
2023/03/24 10:03:27;;;;;;;1.88;0.30;;;;;;;;;;4134716;28;20053;-38
2023/03/24 10:05:35;;;;;;;2.28;0.98;;;;;;;;;;4134534;28;21870;-40
2023/03/24 10:07:43;;;;;;;2.53;0.70;;;;;;;;;;4132058;28;20058;-39
2023/03/24 10:09:47;;;;;;;1.52;0.40;;;;;;;;;;4129173;28;20062;-40
2023/03/24 10:12:02;;;;;;;1.00;0.40;;;;;;;;;;4126879;28;20183;-40
2023/03/24 10:14:25;;;;;;;1.48;0.47;;;;;;;;;;4127374;28;20116;-40
2023/03/24 10:16:27;;;;;;;2.35;0.80;;;;;;;;;;4135668;28;20061;-40
2023/03/24 10:19:12;;;;;;;2.05;0.60;;;;;;;;;;4137519;28;20061;-39
2023/03/24 10:21:19;;;;;;;1.58;0.45;;;;;;;;;;4124055;28;20150;-40
2023/03/24 10:23:40;;;;;;;2.22;0.57;;;;;;;;;;4124131;28;20050;-40
2023/03/24 10:25:50;;;;;;;2.03;0.57;;;;;;;;;;4125079;28;20568;-40
2023/03/24 10:28:02;;;;;;;2.58;0.50;;;;;;;;;;4135965;28;20199;-41
2023/03/24 10:30:13;;;;;;;1.02;0.40;;;;;;;;;;4130848;28;20502;-41
2023/03/24 10:32:19;;;;;;;1.02;0.52;;;;;;;;;;4129660;28;20084;-38
2023/03/24 10:34:23;;;;;;;1.00;0.40;;;;;;;;;;4134682;28;20429;-39
2023/03/24 10:36:25;;;;;;;2.17;0.60;;;;;;;;;;4125334;28;20063;-38
2023/03/24 10:38:27;;;;;;;1.60;0.40;;;;;;;;;;4130429;28;20061;-40
2023/03/24 10:40:30;;;;;;;1.27;0.45;;;;;;;;;;4133762;28;20453;-39
2023/03/24 10:42:34;;;;;;;1.65;0.40;;;;;;;;;;4129726;28;20417;-38
2023/03/24 10:44:35;;;;;;;0.93;0.50;;;;;;;;;;4163630;28;20048;-40
2023/03/24 10:46:43;;;;;;;2.13;0.73;;;;;;;;;;4132351;28;20521;-40
2023/03/24 10:48:47;;;;;;;1.52;0.50;;;;;;;;;;4135510;28;20061;-40
2023/03/24 10:51:25;;;;;;;0.88;0.40;;;;;;;;;;4134601;28;20057;-40
2023/03/24 10:53:47;;;;;;;1.85;0.63;;;;;;;;;;4137188;28;22254;-40
2023/03/24 10:55:49;;;;;;;3.33;0.50;;;;;;;;;;4135769;28;20163;-41
2023/03/24 10:57:54;;;;;;;0.63;0.32;;;;;;;;;;4136213;28;20061;-42
2023/03/24 10:59:58;;;;;;;0.98;0.38;;;;;;;;;;4133671;28;20483;-42
2023/03/24 11:02:14;;;;;;;1.75;0.57;;;;;;;;;;4119652;28;20058;-41
2023/03/24 11:04:16;;;;;;;2.72;0.60;;;;;;;;;;4109670;28;20097;-38
2023/03/24 11:06:20;;;;;;;1.23;0.50;;;;;;;;;;4123692;28;20068;-42
2023/03/24 11:08:27;;;;;;;1.77;0.45;;;;;;;;;;4134671;28;20501;-38
2023/03/24 11:10:29;;;;;;;1.45;0.60;;;;;;;;;;4135972;28;20069;-39
2023/03/24 11:12:32;;;;;;;2.45;1.05;;;;;;;;;;4140043;28;20061;-41
2023/03/24 11:14:43;;;;;;;1.25;0.68;;;;;;;;;;4135213;28;20199;-42
2023/03/24 11:16:44;;;;;;;1.35;0.75;;;;;;;;;;4134268;28;20690;-40
2023/03/24 11:19:08;;;;;;;1.45;0.85;;;;;;;;;;4142032;28;20050;-41
2023/03/24 11:21:09;;;;;;;2.70;0.52;;;;;;;;;;4133956;28;20450;-41
2023/03/24 11:23:31;;;;;;;1.95;0.88;;;;;;;;;;4142020;28;20057;-39
2023/03/24 11:25:35;;;;;;;3.30;0.70;;;;;;;;;;4142227;28;20058;-41
2023/03/24 11:27:43;;;;;;;1.52;0.60;;;;;;;;;;4134001;28;20076;-40
2023/03/24 11:29:50;;;;;;;4.50;0.80;;;;;;;;;;4138040;28;20092;-40
2023/03/24 11:31:55;;;;;;;3.28;0.60;;;;;;;;;;4117378;28;20451;-41
2023/03/24 11:34:01;;;;;;;1.60;0.73;;;;;;;;;;4135993;28;20049;-40
2023/03/24 11:36:31;;;;;;;4.07;1.08;;;;;;;;;;4139850;28;20057;-41
2023/03/24 11:38:33;;;;;;;1.38;0.47;;;;;;;;;;4143786;28;20556;-42
2023/03/24 11:40:35;;;;;;;1.83;0.85;;;;;;;;;;4142968;28;20057;-40
2023/03/24 11:42:45;;;;;;;1.73;0.68;;;;;;;;;;4141070;28;20160;-41
2023/03/24 11:44:49;;;;;;;1.40;0.60;;;;;;;;;;4144577;28;20108;-42
2023/03/24 11:47:20;;;;;;;1.92;0.70;;;;;;;;;;4146776;28;20049;-41
2023/03/24 11:49:25;;;;;;;3.15;0.70;;;;;;;;;;4137737;28;20525;-41
2023/03/24 11:51:36;;;;;;;1.17;0.60;;;;;;;;;;4148970;28;20124;-40
2023/03/24 11:53:47;;;;;;;1.58;0.47;;;;;;;;;;4155253;28;20104;-42
2023/03/24 11:55:58;;;;;;;1.73;0.75;;;;;;;;;;4131668;28;20103;-41
2023/03/24 11:58:11;;;;;;;2.20;0.82;;;;;;;;;;4122076;28;20054;-39
2023/03/24 12:00:28;;;;;;;1.23;0.70;;;;;;;;;;4119696;28;20144;-39
2023/03/24 12:03:19;;;;;;;1.88;0.90;;;;;;;;;;4161066;28;20161;-41
2023/03/24 12:05:41;;;;;;;3.80;0.70;;;;;;;;;;4153047;28;20215;-41
2023/03/24 12:07:57;;;;;;;7.38;1.23;;;;;;;;;;4136763;28;20108;-42
2023/03/24 12:10:29;;;;;;;3.63;0.93;;;;;;;;;;4125736;28;20057;-42
2023/03/24 12:12:53;;;;;;;1.83;0.70;;;;;;;;;;4131028;28;20056;-42
2023/03/24 12:15:20;;;;;;;2.38;0.60;;;;;;;;;;4128160;28;20057;-41
2023/03/24 12:17:34;;;;;;;4.18;0.75;;;;;;;;;;4134967;28;20432;-43
2023/03/24 12:19:43;;;;;;;3.85;0.88;;;;;;;;;;4114262;28;20073;-41
2023/03/24 12:22:15;;;;;;;1.52;0.60;;;;;;;;;;4140439;28;20053;-39
2023/03/24 12:24:56;;;;;;;2.67;0.60;;;;;;;;;;4137280;28;20147;-42
2023/03/24 12:26:59;;;;;;;3.05;0.80;;;;;;;;;;4133022;28;20280;-39
2023/03/24 12:29:25;;;;;;;1.80;0.52;;;;;;;;;;4127917;28;20057;-41
2023/03/24 12:31:42;;;;;;;1.70;0.50;;;;;;;;;;4133875;28;20053;-41
2023/03/24 12:33:46;;;;;;;2.08;0.68;;;;;;;;;;4128985;28;20053;-40
2023/03/24 12:36:18;;;;;;;1.98;1.00;;;;;;;;;;4128201;28;20155;-37
2023/03/24 12:39:07;;;;;;;1.75;0.70;;;;;;;;;;4133594;28;20433;-39
2023/03/24 12:41:29;;;;;;;4.93;0.80;;;;;;;;;;4131949;28;20111;-38
2023/03/24 12:43:47;;;;;;;3.78;0.77;;;;;;;;;;4141674;28;20115;-38
2023/03/24 12:45:53;;;;;;;1.40;0.65;;;;;;;;;;4134138;28;20062;-40
2023/03/24 12:48:13;;;;;;;3.45;1.10;;;;;;;;;;4132869;28;20135;-40
2023/03/24 12:50:32;;;;;;;;;;;;;;;;;;4131618;28;20088;-41
2023/03/24 12:52:45;;;;;;;1.92;0.68;;;;;;;;;;4131881;28;20348;-40
2023/03/24 12:55:08;;;;;;;2.33;0.63;;;;;;;;;;4132189;28;20050;-39
2023/03/24 12:57:13;;;;;;;2.35;0.70;;;;;;;;;;4139492;28;20069;-40
2023/03/24 12:59:28;;;;;;;1.65;0.73;;;;;;;;;;4133316;28;20054;-40
2023/03/24 13:01:40;;;;;;;1.65;0.40;;;;;;;;;;4136478;28;20069;-38
2023/03/24 13:03:48;;;;;;;2.42;0.70;;;;;;;;;;4120219;28;20563;-39
2023/03/24 13:05:52;;;;;;;1.08;0.60;;;;;;;;;;4136426;28;20560;-38